Time;durP1;ratioP1;P1;durP2;ratioP2;P2;SDS_P1;SDS_P2;PMS_P1;PMS_P2;Temp;Humidity;BMP_temperature;BMP_pressure;BME280_temperature;BME280_humidity;BME280_pressure;Samples;Min_cycle;Max_cycle;Signal;HPM_P1;HPM_P2
2022/02/27 00:00:47;;;;;;;20.80;12.43;;;4.60;1.00;;;;;;5032656;28;20191;-60
2022/02/27 00:03:13;;;;;;;16.13;12.43;;;4.70;1.00;;;;;;5040944;28;20261;-60
2022/02/27 00:05:38;;;;;;;17.37;11.83;;;4.70;1.00;;;;;;5031344;28;20360;-60
2022/02/27 00:08:04;;;;;;;20.13;12.00;;;4.70;1.00;;;;;;5037719;28;20179;-60
2022/02/27 00:10:30;;;;;;;17.43;11.43;;;4.70;1.00;;;;;;5051054;28;20212;-60
2022/02/27 00:12:55;;;;;;;16.23;11.23;;;4.70;1.00;;;;;;5045171;28;20694;-60
2022/02/27 00:15:21;;;;;;;16.53;11.20;;;4.70;1.00;;;;;;5037878;28;20187;-60
2022/02/27 00:17:46;;;;;;;17.13;11.30;;;4.60;1.00;;;;;;5044752;28;20186;-60
2022/02/27 00:20:12;;;;;;;19.73;12.43;;;4.60;1.00;;;;;;5039010;28;20194;-60
2022/02/27 00:22:38;;;;;;;18.38;11.70;;;4.60;1.00;;;;;;5040708;28;20187;-60
2022/02/27 00:25:05;;;;;;;16.87;11.50;;;4.60;1.00;;;;;;5030959;28;20226;-60
2022/02/27 00:27:31;;;;;;;17.13;11.70;;;4.50;1.00;;;;;;5030829;28;20269;-60
2022/02/27 00:29:57;;;;;;;16.53;11.83;;;4.50;1.00;;;;;;5030871;28;20293;-60
2022/02/27 00:32:23;;;;;;;19.13;12.82;;;4.50;1.00;;;;;;5042495;28;20240;-60
2022/02/27 00:34:48;;;;;;;19.00;12.40;;;4.50;1.00;;;;;;5034024;28;20190;-58
2022/02/27 00:37:14;;;;;;;19.63;13.03;;;4.50;1.00;;;;;;5021182;28;20184;-60
2022/02/27 00:39:40;;;;;;;17.60;11.87;;;4.40;1.00;;;;;;5031928;28;20179;-61
2022/02/27 00:42:06;;;;;;;23.20;12.57;;;4.40;1.00;;;;;;5037509;28;20228;-60
2022/02/27 00:44:31;;;;;;;19.07;11.90;;;4.40;1.00;;;;;;5031016;28;20711;-59
2022/02/27 00:46:57;;;;;;;20.50;11.87;;;4.40;1.00;;;;;;5030836;28;20469;-60
2022/02/27 00:49:22;;;;;;;19.40;12.43;;;4.40;1.00;;;;;;5032891;28;20207;-60
2022/02/27 00:51:48;;;;;;;16.43;12.27;;;4.40;1.00;;;;;;5036476;28;20182;-61
2022/02/27 00:54:13;;;;;;;16.60;11.70;;;4.40;1.00;;;;;;5046483;28;20223;-58
2022/02/27 00:56:40;;;;;;;18.03;11.60;;;4.30;1.00;;;;;;5030363;28;20182;-58
2022/02/27 00:59:05;;;;;;;18.25;11.43;;;4.30;1.00;;;;;;5030410;28;20653;-60
2022/02/27 01:01:31;;;;;;;16.70;12.00;;;4.30;1.00;;;;;;5040520;28;20187;-60
2022/02/27 01:03:57;;;;;;;16.27;11.77;;;4.30;1.00;;;;;;5036102;28;20178;-60
2022/02/27 01:06:23;;;;;;;18.07;11.90;;;4.30;1.00;;;;;;5048013;28;20198;-60
2022/02/27 01:08:49;;;;;;;21.60;11.20;;;4.30;1.00;;;;;;5034811;28;20980;-60
2022/02/27 01:11:15;;;;;;;15.73;11.80;;;4.20;1.00;;;;;;5037077;28;20186;-60
2022/02/27 01:13:40;;;;;;;17.33;11.83;;;4.20;1.00;;;;;;5034147;28;20420;-60
2022/02/27 01:16:06;;;;;;;18.27;11.40;;;4.20;1.00;;;;;;5042068;28;20201;-60
2022/02/27 01:18:33;;;;;;;18.77;12.37;;;4.20;1.00;;;;;;5032850;28;20195;-61
2022/02/27 01:20:58;;;;;;;17.33;13.32;;;4.20;1.00;;;;;;5049179;28;20194;-61
2022/02/27 01:23:24;;;;;;;17.87;11.50;;;4.20;1.00;;;;;;5032392;28;20186;-61
2022/02/27 01:25:50;;;;;;;19.30;11.67;;;4.10;1.00;;;;;;5030309;28;20461;-60
2022/02/27 01:28:15;;;;;;;16.70;11.43;;;4.10;1.00;;;;;;5029441;28;20580;-60
2022/02/27 01:30:41;;;;;;;15.00;11.20;;;4.10;1.00;;;;;;5031032;28;20254;-60
2022/02/27 01:33:07;;;;;;;19.00;12.50;;;4.10;1.00;;;;;;5037172;28;20187;-60
2022/02/27 01:35:32;;;;;;;20.10;12.97;;;4.10;1.00;;;;;;5029174;28;20189;-59
2022/02/27 01:37:58;;;;;;;20.53;12.97;;;4.10;1.00;;;;;;5031063;28;20240;-60
2022/02/27 01:40:24;;;;;;;19.37;13.63;;;4.10;1.00;;;;;;5030009;28;20183;-59
2022/02/27 01:42:50;;;;;;;18.63;12.38;;;4.10;1.00;;;;;;5031086;28;20696;-58
2022/02/27 01:45:15;;;;;;;19.67;12.57;;;4.10;1.00;;;;;;5029506;28;20211;-59
2022/02/27 01:47:41;;;;;;;17.57;11.60;;;4.00;1.00;;;;;;5029113;28;20257;-60
2022/02/27 01:50:07;;;;;;;22.33;14.03;;;4.00;2.60;;;;;;5035507;28;20214;-60
2022/02/27 01:52:33;;;;;;;20.38;14.60;;;4.00;2.20;;;;;;5035600;28;20245;-59
2022/02/27 01:54:59;;;;;;;23.53;13.90;;;4.00;5.80;;;;;;5045094;28;20186;-61
2022/02/27 01:57:25;;;;;;;23.15;14.30;;;4.00;9.60;;;;;;5039017;28;20547;-60
2022/02/27 01:59:51;;;;;;;18.63;13.20;;;3.90;13.40;;;;;;5043607;28;20190;-61
2022/02/27 02:02:17;;;;;;;18.93;13.10;;;3.90;17.50;;;;;;5021686;28;20435;-61
2022/02/27 02:04:43;;;;;;;18.50;12.30;;;3.80;20.50;;;;;;5028762;28;20237;-60
2022/02/27 02:07:08;;;;;;;19.27;13.00;;;3.80;23.80;;;;;;5028828;28;20203;-60
2022/02/27 02:09:35;;;;;;;20.10;12.93;;;3.80;24.00;;;;;;5029888;28;20183;-60
2022/02/27 02:12:01;;;;;;;17.67;12.90;;;3.80;27.00;;;;;;5028982;28;20198;-59
2022/02/27 02:14:26;;;;;;;24.38;13.73;;;3.80;28.30;;;;;;5029714;28;20181;-60
2022/02/27 02:16:53;;;;;;;21.70;14.20;;;3.80;30.90;;;;;;5029124;28;20186;-59
2022/02/27 02:19:22;;;;;;;23.20;14.63;;;3.70;34.70;;;;;;5029995;28;20189;-60
2022/02/27 02:21:51;;;;;;;20.38;13.52;;;3.70;40.20;;;;;;5026791;28;20210;-60
2022/02/27 02:24:17;;;;;;;18.67;13.43;;;3.70;44.30;;;;;;5028273;28;20195;-60
2022/02/27 02:26:44;;;;;;;18.90;13.75;;;3.80;44.30;;;;;;5028400;28;20215;-60
2022/02/27 02:29:12;;;;;;;21.92;14.23;;;3.80;42.60;;;;;;5028372;28;20183;-60
2022/02/27 02:31:38;;;;;;;24.85;12.93;;;3.70;41.90;;;;;;5023922;28;20183;-60
2022/02/27 02:34:10;;;;;;;22.75;13.10;;;3.70;41.10;;;;;;5030003;28;20182;-59
2022/02/27 02:36:36;;;;;;;25.30;14.40;;;3.70;39.10;;;;;;5018695;28;20213;-60
2022/02/27 02:39:06;;;;;;;22.50;14.02;;;3.60;42.40;;;;;;5035835;28;20253;-60
2022/02/27 02:41:31;;;;;;;17.45;13.77;;;3.60;43.40;;;;;;5029897;28;20187;-60
2022/02/27 02:43:57;;;;;;;19.60;14.93;;;3.60;43.30;;;;;;5029427;28;20716;-59
2022/02/27 02:46:23;;;;;;;18.57;14.03;;;3.50;43.30;;;;;;5033723;28;20510;-60
2022/02/27 02:48:49;;;;;;;24.00;14.40;;;3.50;45.30;;;;;;5032927;28;20461;-59
2022/02/27 02:51:14;;;;;;;18.50;13.53;;;3.50;46.90;;;;;;5033563;28;20179;-59
2022/02/27 02:53:40;;;;;;;23.77;14.23;;;3.50;47.10;;;;;;5032437;28;20219;-59
2022/02/27 02:56:06;;;;;;;21.17;13.97;;;3.40;48.70;;;;;;5032786;28;20176;-60
2022/02/27 02:58:35;;;;;;;20.52;14.82;;;3.40;50.80;;;;;;5032862;28;20673;-60
2022/02/27 03:01:01;;;;;;;21.05;13.98;;;3.40;54.50;;;;;;5031805;28;20198;-59
2022/02/27 03:03:27;;;;;;;23.52;14.95;;;3.40;58.10;;;;;;5032507;28;20199;-60
2022/02/27 03:05:52;;;;;;;23.17;14.83;;;3.40;58.20;;;;;;5033672;28;20202;-59
2022/02/27 03:08:18;;;;;;;20.10;14.67;;;3.40;62.50;;;;;;5021535;28;20187;-59
2022/02/27 03:10:43;;;;;;;22.57;16.00;;;3.40;69.00;;;;;;5025373;28;20180;-59
2022/02/27 03:13:09;;;;;;;21.27;15.30;;;3.40;72.00;;;;;;5032339;28;20224;-58
2022/02/27 03:15:35;;;;;;;23.37;16.00;;;3.40;73.20;;;;;;5033194;28;20180;-58
2022/02/27 03:18:00;;;;;;;23.00;14.50;;;3.40;74.70;;;;;;5032326;28;20182;-59
2022/02/27 03:20:26;;;;;;;23.07;14.17;;;3.40;76.00;;;;;;5033423;28;20183;-60
2022/02/27 03:22:52;;;;;;;23.70;13.68;;;3.50;75.80;;;;;;5032101;28;20283;-59
2022/02/27 03:25:17;;;;;;;24.83;15.03;;;3.50;73.40;;;;;;5033038;28;20246;-59
2022/02/27 03:27:43;;;;;;;22.57;14.20;;;3.50;73.40;;;;;;5031824;28;20187;-60
2022/02/27 03:30:09;;;;;;;21.97;15.07;;;3.50;74.40;;;;;;5033138;28;20290;-57
2022/02/27 03:32:34;;;;;;;20.90;14.43;;;3.50;71.60;;;;;;5032566;28;20183;-60
2022/02/27 03:35:00;;;;;;;23.03;14.50;;;3.50;69.40;;;;;;5032050;28;20518;-60
2022/02/27 03:37:25;;;;;;;18.10;13.53;;;3.40;65.60;;;;;;5033543;28;20178;-60
2022/02/27 03:39:51;;;;;;;20.03;14.73;;;3.40;63.90;;;;;;5039543;28;20189;-60
2022/02/27 03:42:17;;;;;;;21.70;15.70;;;3.20;61.60;;;;;;5044071;28;20171;-60
2022/02/27 03:44:43;;;;;;;24.52;15.80;;;3.10;67.80;;;;;;5046034;28;20693;-60
2022/02/27 03:47:09;;;;;;;23.80;16.20;;;3.10;75.30;;;;;;5031772;28;20215;-59
2022/02/27 03:49:34;;;;;;;18.90;14.80;;;3.10;81.40;;;;;;5047685;28;20171;-60
2022/02/27 03:52:00;;;;;;;23.20;15.23;;;3.10;84.90;;;;;;5032719;28;20202;-60
2022/02/27 03:54:25;;;;;;;21.73;15.67;;;3.10;88.30;;;;;;5048970;28;20693;-59
2022/02/27 03:56:51;;;;;;;21.80;14.87;;;3.10;91.40;;;;;;5031772;28;20666;-60
2022/02/27 03:59:17;;;;;;;21.67;13.77;;;3.20;92.30;;;;;;5045383;28;20206;-60
2022/02/27 04:01:42;;;;;;;20.90;14.27;;;3.10;92.40;;;;;;5010615;28;20192;-60
2022/02/27 04:04:08;;;;;;;26.07;14.57;;;3.20;93.60;;;;;;5047216;28;20925;-60
2022/02/27 04:06:33;;;;;;;20.10;14.03;;;3.20;93.70;;;;;;5031776;28;20210;-59
2022/02/27 04:08:59;;;;;;;23.20;15.57;;;3.20;94.90;;;;;;5032618;28;20249;-59
2022/02/27 04:11:24;;;;;;;21.40;14.17;;;3.20;95.20;;;;;;5031175;28;20183;-59
2022/02/27 04:13:50;;;;;;;25.27;15.53;;;3.20;95.70;;;;;;5032387;28;20172;-60
2022/02/27 04:16:15;;;;;;;29.00;16.80;;;3.20;94.60;;;;;;5031250;28;20199;-59
2022/02/27 04:18:41;;;;;;;22.20;15.00;;;3.20;96.30;;;;;;5030907;28;20310;-60
2022/02/27 04:21:06;;;;;;;24.60;16.70;;;3.20;96.80;;;;;;5032484;28;20180;-61
2022/02/27 04:23:33;;;;;;;27.30;16.73;;;3.30;97.10;;;;;;5031536;28;20191;-61
2022/02/27 04:25:59;;;;;;;20.30;15.25;;;3.30;95.60;;;;;;5031130;28;20612;-61
2022/02/27 04:28:24;;;;;;;24.37;17.27;;;3.30;94.10;;;;;;5030975;28;20175;-60
2022/02/27 04:30:50;;;;;;;19.33;16.40;;;3.20;92.00;;;;;;5031206;28;20265;-60
2022/02/27 04:33:15;;;;;;;24.30;16.07;;;3.20;87.90;;;;;;5029741;28;20194;-61
2022/02/27 04:35:41;;;;;;;23.53;16.60;;;3.10;84.90;;;;;;5031708;28;20183;-61
2022/02/27 04:38:06;;;;;;;20.23;16.57;;;3.00;82.50;;;;;;5032487;28;20549;-61
2022/02/27 04:40:35;;;;;;;24.67;15.80;;;2.90;81.70;;;;;;5038286;28;20571;-61
2022/02/27 04:43:02;;;;;;;20.63;15.90;;;2.80;78.90;;;;;;5031453;28;20286;-61
2022/02/27 04:45:28;;;;;;;23.30;16.17;;;2.70;79.40;;;;;;5030461;28;20202;-60
2022/02/27 04:47:54;;;;;;;23.45;15.80;;;2.60;82.30;;;;;;5038294;28;20189;-60
2022/02/27 04:50:19;;;;;;;24.70;15.30;;;2.50;83.60;;;;;;5037299;28;20179;-61
2022/02/27 04:52:45;;;;;;;22.30;15.10;;;2.50;85.30;;;;;;5037349;28;20186;-61
2022/02/27 04:55:10;;;;;;;25.67;17.10;;;2.40;88.90;;;;;;5049370;28;20178;-60
2022/02/27 04:57:36;;;;;;;20.63;15.57;;;2.30;91.70;;;;;;5037589;28;20194;-61
2022/02/27 05:00:06;;;;;;;26.10;17.73;;;2.30;96.40;;;;;;5038921;28;20426;-60
2022/02/27 05:02:33;;;;;;;26.45;16.75;;;2.20;98.90;;;;;;5029652;28;20214;-60
2022/02/27 05:04:58;;;;;;;25.08;17.45;;;2.10;99.90;;;;;;5040265;28;20228;-60
2022/02/27 05:07:24;;;;;;;30.73;18.50;;;2.10;99.90;;;;;;5027156;28;20297;-60
2022/02/27 05:09:49;;;;;;;28.13;18.70;;;2.00;99.90;;;;;;5030211;28;20690;-60
2022/02/27 05:12:15;;;;;;;26.20;17.13;;;1.80;99.90;;;;;;5045177;28;20191;-60
2022/02/27 05:14:40;;;;;;;23.80;17.60;;;1.80;99.90;;;;;;5033033;28;20297;-59
2022/02/27 05:17:06;;;;;;;22.67;16.20;;;1.70;99.90;;;;;;5048282;28;21042;-60
2022/02/27 05:19:31;;;;;;;24.33;16.30;;;1.70;99.90;;;;;;5042542;28;20269;-59
2022/02/27 05:21:57;;;;;;;23.67;16.07;;;1.60;99.90;;;;;;5035339;28;20191;-60
2022/02/27 05:24:24;;;;;;;26.50;16.43;;;1.50;99.90;;;;;;5035588;28;20187;-60
2022/02/27 05:26:49;;;;;;;22.70;16.40;;;1.50;99.90;;;;;;5032920;28;20213;-61
2022/02/27 05:29:15;;;;;;;26.17;15.40;;;1.40;99.90;;;;;;5040433;28;20194;-61
2022/02/27 05:31:40;;;;;;;24.93;14.73;;;1.40;99.90;;;;;;5031341;28;20183;-61
2022/02/27 05:34:06;;;;;;;24.73;16.40;;;1.40;99.90;;;;;;5043335;28;20213;-61
2022/02/27 05:36:32;;;;;;;21.47;15.37;;;1.30;99.90;;;;;;5045746;28;20241;-61
2022/02/27 05:38:57;;;;;;;23.93;15.50;;;1.30;99.90;;;;;;5036921;28;20433;-58
2022/02/27 05:41:23;;;;;;;24.37;15.87;;;1.30;99.90;;;;;;5035481;28;20190;-61
2022/02/27 05:43:48;;;;;;;27.90;16.33;;;1.20;99.90;;;;;;5031106;28;20953;-61
2022/02/27 05:46:14;;;;;;;25.03;18.10;;;1.20;99.90;;;;;;5041128;28;20218;-61
2022/02/27 05:48:39;;;;;;;26.73;16.50;;;1.20;99.90;;;;;;5030314;28;20195;-61
2022/02/27 05:51:05;;;;;;;22.90;16.40;;;1.10;99.90;;;;;;5041735;28;20191;-61
2022/02/27 05:53:31;;;;;;;27.13;17.13;;;1.10;99.90;;;;;;5041990;28;20238;-60
2022/02/27 05:55:57;;;;;;;22.10;16.77;;;1.00;99.90;;;;;;5030395;28;20437;-61
2022/02/27 05:58:25;;;;;;;27.95;17.02;;;1.00;99.90;;;;;;5031977;28;20186;-60
2022/02/27 06:00:51;;;;;;;25.13;16.67;;;1.00;99.90;;;;;;5038229;28;20199;-60
2022/02/27 06:03:17;;;;;;;26.87;16.23;;;0.90;99.90;;;;;;5030194;28;20552;-60
2022/02/27 06:05:44;;;;;;;23.83;15.32;;;0.90;99.90;;;;;;5043492;28;20477;-60
2022/02/27 06:08:09;;;;;;;22.08;15.85;;;0.80;99.90;;;;;;5030905;28;20618;-60
2022/02/27 06:10:35;;;;;;;22.80;15.63;;;0.80;99.90;;;;;;5030092;28;20198;-60
2022/02/27 06:13:00;;;;;;;21.83;15.10;;;0.80;99.90;;;;;;5039366;28;20186;-60
2022/02/27 06:15:26;;;;;;;27.10;15.33;;;0.80;99.90;;;;;;5050050;28;20301;-61
2022/02/27 06:17:51;;;;;;;22.23;14.50;;;0.70;99.90;;;;;;5042009;28;20192;-61
2022/02/27 06:20:17;;;;;;;21.30;13.90;;;0.70;99.90;;;;;;5031611;28;20190;-60
2022/02/27 06:22:45;;;;;;;26.13;16.92;;;0.70;99.90;;;;;;5027902;28;20361;-61
2022/02/27 06:25:13;;;;;;;23.70;14.73;;;0.70;99.90;;;;;;5029215;28;20191;-60
2022/02/27 06:27:42;;;;;;;26.27;14.95;;;0.70;99.90;;;;;;5041640;28;20313;-61
2022/02/27 06:30:10;;;;;;;25.73;14.65;;;0.70;99.90;;;;;;5030184;28;20179;-59
2022/02/27 06:32:36;;;;;;;23.73;14.93;;;0.70;99.90;;;;;;5039482;28;20633;-60
2022/02/27 06:35:02;;;;;;;25.52;15.55;;;0.70;99.90;;;;;;5029665;28;20233;-60
2022/02/27 06:37:27;;;;;;;24.87;16.07;;;0.80;99.90;;;;;;5029178;28;20187;-60
2022/02/27 06:39:53;;;;;;;20.03;14.60;;;0.80;99.90;;;;;;5038486;28;20182;-60
2022/02/27 06:42:19;;;;;;;22.87;15.07;;;0.80;99.90;;;;;;5033302;28;20217;-60
2022/02/27 06:44:44;;;;;;;26.30;15.60;;;0.80;99.90;;;;;;5036286;28;20205;-60
2022/02/27 06:47:10;;;;;;;22.77;15.60;;;0.80;99.90;;;;;;5045748;28;20577;-60
2022/02/27 06:49:35;;;;;;;21.90;15.50;;;0.90;99.90;;;;;;5035954;28;20183;-59
2022/02/27 06:52:01;;;;;;;23.80;15.97;;;0.90;99.90;;;;;;5026165;28;20187;-59
2022/02/27 06:54:26;;;;;;;28.03;16.17;;;1.00;99.90;;;;;;5029038;28;20226;-60
2022/02/27 06:56:52;;;;;;;22.93;15.50;;;1.00;99.90;;;;;;5034839;28;20182;-60
2022/02/27 06:59:18;;;;;;;27.73;16.17;;;1.10;99.90;;;;;;5037240;28;20181;-60
2022/02/27 07:01:43;;;;;;;24.20;17.17;;;1.20;99.90;;;;;;5026622;28;20517;-60
2022/02/27 07:04:09;;;;;;;26.73;17.10;;;1.20;99.90;;;;;;5024950;28;20186;-59
2022/02/27 07:06:35;;;;;;;26.37;17.00;;;1.30;99.90;;;;;;5025823;28;20207;-60
2022/02/27 07:09:00;;;;;;;29.33;16.40;;;1.20;99.90;;;;;;5027375;28;20199;-60
2022/02/27 07:11:26;;;;;;;24.83;16.83;;;1.20;99.90;;;;;;5032317;28;20700;-60
2022/02/27 07:13:52;;;;;;;23.17;16.37;;;1.20;99.90;;;;;;5033657;28;20681;-60
2022/02/27 07:16:22;;;;;;;24.20;15.93;;;1.20;99.90;;;;;;5023090;28;20193;-61
2022/02/27 07:18:48;;;;;;;27.42;17.63;;;1.30;99.90;;;;;;5030372;28;20175;-61
2022/02/27 07:21:14;;;;;;;24.10;17.35;;;1.40;99.90;;;;;;5035353;28;20201;-61
2022/02/27 07:23:39;;;;;;;27.23;18.50;;;1.50;99.90;;;;;;5018578;28;20183;-60
2022/02/27 07:26:05;;;;;;;29.67;17.57;;;1.50;99.90;;;;;;5026223;28;21270;-60
2022/02/27 07:28:31;;;;;;;28.67;18.23;;;1.60;99.90;;;;;;5031189;28;21851;-60
2022/02/27 07:30:56;;;;;;;28.20;18.50;;;1.70;99.90;;;;;;5016539;28;20203;-59
2022/02/27 07:33:23;;;;;;;28.43;18.30;;;1.80;99.90;;;;;;5031092;28;20486;-58
2022/02/27 07:35:49;;;;;;;28.02;18.30;;;1.90;99.90;;;;;;5022887;28;20992;-59
2022/02/27 07:38:14;;;;;;;33.10;20.20;;;1.90;99.90;;;;;;5028281;28;20301;-54
2022/02/27 07:40:40;;;;;;;32.70;23.33;;;2.00;99.90;;;;;;5025450;28;20251;-60
2022/02/27 07:43:05;;;;;;;37.30;27.50;;;2.10;99.90;;;;;;5027242;28;20191;-61
2022/02/27 07:45:31;;;;;;;29.70;20.37;;;2.10;99.90;;;;;;5031755;28;20297;-60
2022/02/27 07:47:57;;;;;;;32.30;20.33;;;2.20;99.90;;;;;;5023859;28;20199;-60
2022/02/27 07:50:22;;;;;;;28.60;20.47;;;2.30;99.90;;;;;;5030083;28;20273;-58
2022/02/27 07:52:48;;;;;;;28.20;20.30;;;2.40;99.90;;;;;;5030559;28;20190;-61
2022/02/27 07:55:13;;;;;;;29.60;18.90;;;2.50;99.90;;;;;;5032218;28;20187;-61
2022/02/27 07:57:39;;;;;;;30.27;18.53;;;2.50;99.90;;;;;;5035657;28;20236;-61
2022/02/27 08:00:06;;;;;;;30.13;16.87;;;2.70;99.90;;;;;;5032033;28;20187;-60
2022/02/27 08:02:31;;;;;;;24.45;16.50;;;2.80;99.90;;;;;;5040179;28;20269;-62
2022/02/27 08:04:57;;;;;;;26.47;17.20;;;2.90;99.90;;;;;;5031211;28;20282;-60
2022/02/27 08:07:23;;;;;;;26.77;16.87;;;3.00;99.90;;;;;;5037233;28;20282;-60
2022/02/27 08:09:48;;;;;;;30.50;17.60;;;3.20;99.90;;;;;;5031765;28;20198;-60
2022/02/27 08:12:14;;;;;;;30.67;17.60;;;3.40;99.90;;;;;;5028072;28;20190;-60
2022/02/27 08:14:39;;;;;;;24.43;16.13;;;3.60;99.90;;;;;;5041582;28;20210;-60
2022/02/27 08:17:05;;;;;;;25.20;16.77;;;3.80;91.70;;;;;;5039119;28;20248;-59
2022/02/27 08:19:30;;;;;;;24.87;15.63;;;4.00;88.50;;;;;;5039768;28;20194;-60
2022/02/27 08:21:56;;;;;;;26.97;16.70;;;4.40;80.20;;;;;;5028731;28;20237;-58
2022/02/27 08:24:21;;;;;;;20.33;14.70;;;4.90;45.20;;;;;;5022462;28;20195;-58
2022/02/27 08:26:47;;;;;;;23.10;13.93;;;5.50;1.00;;;;;;5026008;28;20686;-60
2022/02/27 08:29:12;;;;;;;17.00;12.60;;;6.10;1.00;;;;;;5035861;28;20187;-62
2022/02/27 08:31:44;;;;;;;16.53;12.03;;;6.90;1.00;;;;;;5032099;28;20282;-62
2022/02/27 08:34:11;;;;;;;13.97;11.60;;;7.70;1.00;;;;;;5034616;28;20170;-61
2022/02/27 08:36:37;;;;;;;16.17;12.00;;;8.70;1.00;;;;;;5022140;28;21077;-60
2022/02/27 08:39:04;;;;;;;17.47;12.83;;;9.10;99.90;;;;;;5036606;28;20955;-63
2022/02/27 08:41:29;;;;;;;14.70;12.80;;;9.70;1.00;;;;;;5028928;28;20456;-61
2022/02/27 08:43:55;;;;;;;14.90;12.53;;;10.60;99.90;;;;;;5038806;28;20476;-64
2022/02/27 08:46:20;;;;;;;14.80;12.50;;;10.80;96.10;;;;;;5035376;28;20289;-64
2022/02/27 08:48:47;;;;;;;16.03;13.13;;;11.20;94.20;;;;;;5031289;28;20194;-64
2022/02/27 08:51:12;;;;;;;15.60;11.97;;;11.70;92.80;;;;;;5031213;28;20507;-64
2022/02/27 08:53:38;;;;;;;13.37;11.93;;;12.10;85.20;;;;;;5033916;28;20465;-63
2022/02/27 08:56:04;;;;;;;15.57;13.20;;;12.30;81.70;;;;;;5028457;28;20532;-66
2022/02/27 08:58:29;;;;;;;14.80;12.87;;;12.60;80.30;;;;;;5033114;28;20182;-67
2022/02/27 09:00:56;;;;;;;13.23;11.27;;;13.00;78.40;;;;;;5027572;28;20183;-65
2022/02/27 09:03:24;;;;;;;13.60;12.20;;;13.50;72.50;;;;;;5043581;28;20198;-63
2022/02/27 09:05:51;;;;;;;14.77;12.43;;;13.70;68.00;;;;;;5028990;28;20480;-65
2022/02/27 09:08:17;;;;;;;13.97;11.67;;;13.70;67.20;;;;;;5033167;28;20421;-65
2022/02/27 09:10:42;;;;;;;14.10;11.77;;;13.80;67.70;;;;;;5029348;28;21080;-64
2022/02/27 09:13:08;;;;;;;12.93;11.67;;;13.50;66.90;;;;;;5044747;28;20217;-64
2022/02/27 09:15:34;;;;;;;13.23;11.87;;;14.10;59.90;;;;;;5030022;28;20689;-64
2022/02/27 09:17:59;;;;;;;12.17;10.97;;;14.40;59.70;;;;;;5029460;28;20179;-64
2022/02/27 09:20:25;;;;;;;11.50;10.33;;;13.90;60.90;;;;;;5039910;28;20179;-65
2022/02/27 09:22:50;;;;;;;10.33;9.30;;;13.60;60.30;;;;;;5042538;28;20224;-67
2022/02/27 09:25:16;;;;;;;12.07;10.97;;;14.00;58.30;;;;;;5030046;28;20182;-65
2022/02/27 09:27:42;;;;;;;12.70;10.37;;;14.60;55.50;;;;;;5030280;28;20640;-65
2022/02/27 09:30:08;;;;;;;10.60;9.60;;;15.30;51.30;;;;;;5032513;28;20183;-64
2022/02/27 09:32:33;;;;;;;11.27;10.17;;;15.30;51.30;;;;;;5028140;28;20234;-64
2022/02/27 09:35:01;;;;;;;10.30;9.30;;;15.10;51.30;;;;;;5034431;28;20924;-64
2022/02/27 09:37:26;;;;;;;11.57;10.40;;;15.30;48.90;;;;;;5036066;28;20650;-63
2022/02/27 09:39:53;;;;;;;11.43;10.43;;;16.20;48.30;;;;;;5026950;28;20435;-65
2022/02/27 09:42:19;;;;;;;10.53;9.53;;;16.30;47.50;;;;;;5029738;28;20201;-64
2022/02/27 09:44:45;;;;;;;9.63;8.63;;;16.60;43.60;;;;;;5028821;28;20441;-63
2022/02/27 09:47:13;;;;;;;11.00;9.23;;;16.60;42.20;;;;;;5028969;28;20305;-62
2022/02/27 09:49:45;;;;;;;10.20;9.20;;;16.70;45.00;;;;;;5026695;28;20418;-62
2022/02/27 09:52:15;;;;;;;8.40;7.70;;;17.10;42.70;;;;;;5029233;28;20429;-63
2022/02/27 09:54:41;;;;;;;9.27;8.48;;;17.20;41.70;;;;;;5027178;28;20429;-63
2022/02/27 09:57:07;;;;;;;8.70;7.93;;;17.70;40.50;;;;;;5028535;28;20198;-62
2022/02/27 09:59:32;;;;;;;6.93;6.33;;;17.20;40.70;;;;;;5028128;28;20884;-62
2022/02/27 10:02:00;;;;;;;7.03;6.53;;;17.70;36.70;;;;;;5027675;28;20218;-60
2022/02/27 10:04:41;;;;;;;6.47;6.00;;;17.70;35.70;;;;;;5027967;28;20253;-61
2022/02/27 10:07:12;;;;;;;6.57;6.07;;;17.40;33.40;;;;;;5027187;28;20473;-61
2022/02/27 10:09:38;;;;;;;6.10;5.70;;;17.70;33.80;;;;;;5028235;28;20426;-63
2022/02/27 10:12:20;;;;;;;6.57;6.07;;;17.60;30.60;;;;;;5029121;28;20491;-62
2022/02/27 10:15:10;;;;;;;7.00;6.40;;;17.90;29.90;;;;;;5029119;28;20406;-63
2022/02/27 10:17:38;;;;;;;6.10;5.60;;;18.50;29.60;;;;;;5026696;28;20454;-62
2022/02/27 10:20:09;;;;;;;6.73;6.23;;;18.30;31.40;;;;;;5028366;28;20433;-61
2022/02/27 10:22:38;;;;;;;6.83;6.43;;;18.10;29.80;;;;;;5028246;28;20448;-62
2022/02/27 10:25:07;;;;;;;7.00;6.50;;;18.00;29.60;;;;;;5027047;28;20444;-61
2022/02/27 10:27:47;;;;;;;7.00;6.60;;;18.40;30.10;;;;;;5031602;28;20884;-61
2022/02/27 10:30:15;;;;;;;7.30;6.80;;;17.90;30.90;;;;;;5031930;28;20423;-61
2022/02/27 10:32:55;;;;;;;7.60;7.10;;;18.10;29.40;;;;;;5023498;28;20486;-61
2022/02/27 10:35:39;;;;;;;6.60;6.10;;;18.20;30.00;;;;;;5024074;28;20500;-60
2022/02/27 10:38:30;;;;;;;7.00;6.50;;;18.40;30.00;;;;;;5027452;28;20440;-60
2022/02/27 10:40:55;;;;;;;7.93;7.33;;;18.70;29.90;;;;;;5032111;28;20419;-60
2022/02/27 10:43:21;;;;;;;7.73;7.10;;;18.60;28.90;;;;;;5035353;28;20794;-61
2022/02/27 10:46:01;;;;;;;6.90;6.37;;;18.60;30.10;;;;;;5024580;28;20211;-61
2022/02/27 10:48:28;;;;;;;6.40;5.90;;;18.70;28.70;;;;;;5034697;28;20267;-60
2022/02/27 10:51:03;;;;;;;7.20;6.60;;;19.50;27.20;;;;;;5033784;28;20459;-61
2022/02/27 10:53:36;;;;;;;7.23;6.73;;;19.60;26.00;;;;;;5030024;28;20464;-60
2022/02/27 10:56:08;;;;;;;7.43;6.77;;;18.10;26.10;;;;;;5028133;28;20444;-61
2022/02/27 10:58:40;;;;;;;6.77;6.27;;;17.60;27.70;;;;;;5041719;28;20445;-62
2022/02/27 11:01:26;;;;;;;6.47;5.87;;;17.50;26.50;;;;;;5017819;28;20941;-62
2022/02/27 11:03:56;;;;;;;6.63;6.13;;;18.10;28.00;;;;;;5015009;28;20440;-62
2022/02/27 11:06:22;;;;;;;6.57;6.00;;;18.40;25.90;;;;;;5031405;28;20533;-62
2022/02/27 11:08:48;;;;;;;6.97;6.47;;;17.40;26.00;;;;;;5030854;28;20429;-62
2022/02/27 11:11:15;;;;;;;6.77;6.27;;;16.60;26.50;;;;;;5031234;28;20425;-61
2022/02/27 11:13:44;;;;;;;6.27;5.87;;;17.40;27.70;;;;;;5031210;28;20442;-62
2022/02/27 11:16:12;;;;;;;7.23;6.77;;;18.10;26.30;;;;;;5032094;28;20433;-62
2022/02/27 11:18:39;;;;;;;6.97;6.37;;;19.40;27.60;;;;;;5031153;28;20777;-62
2022/02/27 11:21:04;;;;;;;6.43;6.03;;;20.10;24.90;;;;;;5032358;28;20892;-62
2022/02/27 11:23:31;;;;;;;6.33;5.93;;;20.00;23.50;;;;;;5029514;28;20443;-61
2022/02/27 11:26:01;;;;;;;6.27;5.87;;;19.50;23.30;;;;;;5039114;28;20467;-62
2022/02/27 11:28:27;;;;;;;6.60;6.20;;;20.10;24.90;;;;;;5031577;28;20756;-62
2022/02/27 11:31:00;;;;;;;6.70;6.30;;;20.40;25.10;;;;;;5029837;28;20444;-61
2022/02/27 11:33:26;;;;;;;6.40;5.90;;;21.10;24.50;;;;;;5034798;28;20175;-62
2022/02/27 11:35:55;;;;;;;6.40;5.97;;;21.30;24.10;;;;;;5024553;28;20924;-62
2022/02/27 11:38:30;;;;;;;5.97;5.57;;;21.10;24.60;;;;;;5026554;28;20645;-62
2022/02/27 11:41:06;;;;;;;6.67;6.27;;;21.20;24.30;;;;;;5034774;28;20439;-62
2022/02/27 11:43:42;;;;;;;5.70;5.40;;;20.90;22.80;;;;;;5031851;28;20462;-62
2022/02/27 11:46:13;;;;;;;5.70;5.37;;;22.10;24.50;;;;;;5029925;28;20463;-63
2022/02/27 11:48:56;;;;;;;6.23;5.83;;;22.90;22.20;;;;;;5031819;28;20912;-62
2022/02/27 11:51:37;;;;;;;5.87;5.47;;;22.50;21.50;;;;;;5023810;28;20425;-62
2022/02/27 11:54:14;;;;;;;12.73;11.83;;;21.70;21.70;;;;;;5031051;28;20465;-63
2022/02/27 11:56:42;;;;;;;6.77;6.37;;;21.90;22.40;;;;;;5025633;28;20513;-63
2022/02/27 11:59:10;;;;;;;6.00;5.50;;;21.80;23.20;;;;;;5020136;28;20433;-62
2022/02/27 12:01:47;;;;;;;5.90;5.50;;;22.10;22.50;;;;;;5030867;28;20441;-63
2022/02/27 12:04:24;;;;;;;7.60;7.10;;;21.20;20.10;;;;;;5031653;28;20420;-62
2022/02/27 12:07:05;;;;;;;9.27;8.57;;;19.70;23.60;;;;;;5031822;28;20466;-62
2022/02/27 12:09:49;;;;;;;7.80;7.20;;;18.20;26.90;;;;;;5030946;28;20457;-63
2022/02/27 12:12:37;;;;;;;7.07;6.60;;;17.20;27.60;;;;;;5031295;28;20899;-63
2022/02/27 12:15:24;;;;;;;6.40;6.00;;;17.80;27.80;;;;;;5031182;28;20413;-63
2022/02/27 12:17:56;;;;;;;7.07;6.57;;;18.40;25.80;;;;;;5030705;28;20897;-63
2022/02/27 12:20:43;;;;;;;6.57;6.17;;;19.10;24.60;;;;;;5030456;28;20415;-62
2022/02/27 12:23:30;;;;;;;7.20;6.70;;;19.20;24.50;;;;;;5031389;28;20398;-63
2022/02/27 12:25:57;;;;;;;5.90;5.50;;;19.00;26.30;;;;;;5030731;28;21037;-63
2022/02/27 12:28:45;;;;;;;6.10;5.70;;;19.70;25.10;;;;;;5030962;28;20439;-63
2022/02/27 12:31:17;;;;;;;6.23;5.83;;;20.40;26.20;;;;;;5031488;28;20421;-62
2022/02/27 12:33:43;;;;;;;6.17;5.77;;;20.60;24.70;;;;;;5034069;28;20422;-63
2022/02/27 12:36:09;;;;;;;6.60;6.20;;;20.50;24.50;;;;;;5039833;28;20422;-63
2022/02/27 12:38:34;;;;;;;7.53;6.93;;;20.30;23.80;;;;;;5030563;28;20202;-62
2022/02/27 12:41:03;;;;;;;7.00;6.53;;;19.60;25.50;;;;;;5044121;28;20269;-63